Time;durP1;ratioP1;P1;durP2;ratioP2;P2;SDS_P1;SDS_P2;PMS_P1;PMS_P2;Temp;Humidity;BMP_temperature;BMP_pressure;BME280_temperature;BME280_humidity;BME280_pressure;Samples;Min_cycle;Max_cycle;Signal;HPM_P1;HPM_P2
2024/01/09 00:01:42;;;;;;;3.13;2.35;;;2.60;80.90;;;;;;5029457;28;20491;-77
2024/01/09 00:04:09;;;;;;;3.25;2.10;;;2.60;78.80;;;;;;5010274;28;20392;-77
2024/01/09 00:06:36;;;;;;;3.60;2.15;;;2.60;75.30;;;;;;5024751;28;20049;-77
2024/01/09 00:09:03;;;;;;;3.25;2.00;;;2.60;75.60;;;;;;5008291;28;20045;-77
2024/01/09 00:11:29;;;;;;;3.90;2.05;;;2.60;75.10;;;;;;5009398;28;20064;-78
2024/01/09 00:14:00;;;;;;;4.90;2.03;;;2.60;76.00;;;;;;5037804;28;20060;-77
2024/01/09 00:16:27;;;;;;;4.43;2.28;;;2.60;78.10;;;;;;5011748;28;20080;-78
2024/01/09 00:18:53;;;;;;;5.55;2.72;;;2.60;73.70;;;;;;5012524;28;20049;-79
2024/01/09 00:21:21;;;;;;;2.63;2.03;;;2.60;79.10;;;;;;5028332;28;20558;-77
2024/01/09 00:23:48;;;;;;;3.20;2.30;;;2.60;79.50;;;;;;5008663;28;20490;-77
2024/01/09 00:26:15;;;;;;;3.25;2.17;;;2.60;74.40;;;;;;5004688;28;20068;-77
2024/01/09 00:28:42;;;;;;;3.10;1.85;;;2.60;75.20;;;;;;4988760;28;20053;-78
2024/01/09 00:31:09;;;;;;;3.65;2.20;;;2.60;73.90;;;;;;4991440;28;20056;-77
2024/01/09 00:33:36;;;;;;;4.32;2.22;;;2.60;82.10;;;;;;4991254;28;20046;-77
2024/01/09 00:36:05;;;;;;;4.35;2.60;;;2.60;73.70;;;;;;4991257;28;20080;-77
2024/01/09 00:38:31;;;;;;;5.15;2.10;;;2.60;75.90;;;;;;5024336;28;20385;-78
2024/01/09 00:40:58;;;;;;;3.55;2.22;;;2.60;76.50;;;;;;5008894;28;20083;-78
2024/01/09 00:43:25;;;;;;;3.33;2.28;;;2.60;73.70;;;;;;4991891;28;20107;-77
2024/01/09 00:45:52;;;;;;;3.30;2.25;;;2.60;75.20;;;;;;5041211;28;20049;-78
2024/01/09 00:48:19;;;;;;;4.68;2.53;;;2.60;76.80;;;;;;5012002;28;20060;-77
2024/01/09 00:50:46;;;;;;;3.17;2.15;;;2.60;81.60;;;;;;5011881;28;20045;-77
2024/01/09 00:53:13;;;;;;;3.83;2.05;;;2.60;83.90;;;;;;5027547;28;20084;-77
2024/01/09 00:55:40;;;;;;;2.72;2.00;;;2.60;76.30;;;;;;4993837;28;20049;-77
2024/01/09 00:58:07;;;;;;;3.17;2.15;;;2.60;74.10;;;;;;4991101;28;20046;-77
2024/01/09 01:00:35;;;;;;;3.88;2.20;;;2.60;80.80;;;;;;5026025;28;20053;-77
2024/01/09 01:03:03;;;;;;;4.45;2.00;;;2.60;77.20;;;;;;5022017;28;20060;-77
2024/01/09 01:05:30;;;;;;;2.80;2.10;;;2.60;82.90;;;;;;5004972;28;20582;-78
2024/01/09 01:07:57;;;;;;;4.18;2.45;;;2.60;77.00;;;;;;5006327;28;20045;-78
2024/01/09 01:10:23;;;;;;;4.40;2.72;;;2.60;85.90;;;;;;5008791;28;20080;-78
2024/01/09 01:12:52;;;;;;;5.18;2.40;;;2.60;76.70;;;;;;4991696;28;20450;-77
2024/01/09 01:15:19;;;;;;;3.47;2.00;;;2.60;82.90;;;;;;4991635;28;20061;-78
2024/01/09 01:17:46;;;;;;;5.70;2.47;;;2.60;81.60;;;;;;5007451;28;20103;-78
2024/01/09 01:20:13;;;;;;;2.83;1.90;;;2.60;92.20;;;;;;5008873;28;20057;-78
2024/01/09 01:22:41;;;;;;;3.83;2.42;;;2.60;91.60;;;;;;5006938;28;20057;-77
2024/01/09 01:25:09;;;;;;;3.20;1.98;;;2.60;91.70;;;;;;5017097;28;20491;-78
2024/01/09 01:27:36;;;;;;;5.00;2.40;;;2.60;76.40;;;;;;5008059;28;20416;-78
2024/01/09 01:30:05;;;;;;;3.50;2.22;;;2.60;83.20;;;;;;5008097;28;20095;-78
2024/01/09 01:32:32;;;;;;;6.82;2.63;;;2.60;70.20;;;;;;5023406;28;20539;-77
2024/01/09 01:34:59;;;;;;;6.47;2.78;;;2.60;71.80;;;;;;5015893;28;20056;-78
2024/01/09 01:37:26;;;;;;;4.90;2.97;;;2.60;77.70;;;;;;5023174;28;20045;-77
2024/01/09 01:39:53;;;;;;;4.43;2.13;;;2.60;70.90;;;;;;5024223;28;20057;-78
2024/01/09 01:42:20;;;;;;;3.45;2.25;;;2.60;72.70;;;;;;5040333;28;20057;-77
2024/01/09 01:44:47;;;;;;;6.38;2.30;;;2.60;74.50;;;;;;5017672;28;20052;-77
2024/01/09 01:47:14;;;;;;;4.10;2.55;;;2.60;74.20;;;;;;4991578;28;20136;-77
2024/01/09 01:49:42;;;;;;;4.25;2.58;;;2.60;71.40;;;;;;4991948;28;20107;-77
2024/01/09 01:52:09;;;;;;;4.18;2.58;;;2.60;70.20;;;;;;5023639;28;20629;-77
2024/01/09 01:54:37;;;;;;;3.97;2.47;;;2.60;77.60;;;;;;5022923;28;20045;-79
2024/01/09 01:57:04;;;;;;;5.40;2.70;;;2.60;90.00;;;;;;5008194;28;20123;-77
2024/01/09 01:59:31;;;;;;;3.40;2.03;;;2.60;75.10;;;;;;4991451;28;20392;-77
2024/01/09 02:01:58;;;;;;;5.25;2.63;;;2.60;75.00;;;;;;5014211;28;20526;-78
2024/01/09 02:04:25;;;;;;;3.65;2.47;;;2.70;76.50;;;;;;5010592;28;20049;-77
2024/01/09 02:06:52;;;;;;;3.47;1.80;;;2.70;83.90;;;;;;5026723;28;20053;-77
2024/01/09 02:09:19;;;;;;;4.72;2.30;;;2.70;81.80;;;;;;5028497;28;20115;-77
2024/01/09 02:11:48;;;;;;;3.90;2.60;;;2.70;80.90;;;;;;5031614;28;20106;-78
2024/01/09 02:14:15;;;;;;;6.07;2.90;;;2.60;99.90;;;;;;5030850;28;20049;-77
2024/01/09 02:16:42;;;;;;;3.63;2.53;;;2.60;91.20;;;;;;5015016;28;20041;-77
2024/01/09 02:19:09;;;;;;;4.43;2.50;;;2.70;94.30;;;;;;5031443;28;20055;-77
2024/01/09 02:21:36;;;;;;;5.00;2.63;;;2.60;95.60;;;;;;5014487;28;20435;-77
2024/01/09 02:24:03;;;;;;;4.60;2.70;;;2.70;92.30;;;;;;5013350;28;20068;-77
2024/01/09 02:26:31;;;;;;;4.25;2.42;;;2.60;93.10;;;;;;5027839;28;20103;-78
2024/01/09 02:29:22;;;;;;;5.40;2.40;;;2.60;91.10;;;;;;5000615;28;20049;-78
2024/01/09 02:31:50;;;;;;;5.05;2.70;;;2.60;94.30;;;;;;5013795;28;20134;-77
2024/01/09 02:34:17;;;;;;;3.38;1.83;;;2.60;95.40;;;;;;5024688;28;20381;-77
2024/01/09 02:36:44;;;;;;;3.78;2.53;;;2.60;95.10;;;;;;5028965;28;20075;-77
2024/01/09 02:39:11;;;;;;;3.75;2.00;;;2.70;93.60;;;;;;5013029;28;20056;-77
2024/01/09 02:41:38;;;;;;;3.88;2.50;;;2.60;92.70;;;;;;5015156;28;20107;-77
2024/01/09 02:44:05;;;;;;;3.75;2.30;;;2.60;88.90;;;;;;5015786;28;20053;-77
2024/01/09 02:46:32;;;;;;;4.47;3.03;;;2.60;77.00;;;;;;5047638;28;20191;-77
2024/01/09 02:48:59;;;;;;;3.40;2.28;;;2.60;89.40;;;;;;5031097;28;20053;-77
2024/01/09 02:51:26;;;;;;;4.22;2.33;;;2.60;79.40;;;;;;5046951;28;20045;-77
2024/01/09 02:53:53;;;;;;;2.92;2.33;;;2.60;82.40;;;;;;5030031;28;20052;-77
2024/01/09 02:56:20;;;;;;;4.93;3.33;;;2.70;83.70;;;;;;5014400;28;20566;-77
2024/01/09 02:58:47;;;;;;;5.25;2.75;;;2.60;80.90;;;;;;5014279;28;20059;-77
2024/01/09 03:01:14;;;;;;;5.15;2.95;;;2.60;85.90;;;;;;5030735;28;20077;-77
2024/01/09 03:03:40;;;;;;;4.85;3.10;;;2.60;92.70;;;;;;5030596;28;20473;-77
2024/01/09 03:06:07;;;;;;;4.82;2.78;;;2.60;83.90;;;;;;5030003;28;20048;-77
2024/01/09 03:08:34;;;;;;;5.70;2.85;;;2.60;77.80;;;;;;5030077;28;20109;-77
2024/01/09 03:11:01;;;;;;;3.13;2.13;;;2.60;80.20;;;;;;5014372;28;20131;-77
2024/01/09 03:13:28;;;;;;;4.43;2.63;;;2.60;87.60;;;;;;5008710;28;20502;-77
2024/01/09 03:15:55;;;;;;;5.20;2.67;;;2.60;82.30;;;;;;5026975;28;20050;-77
2024/01/09 03:18:22;;;;;;;3.95;2.47;;;2.60;75.80;;;;;;4993916;28;20049;-77
2024/01/09 03:20:49;;;;;;;4.15;2.58;;;2.60;99.90;;;;;;5009259;28;20073;-78
2024/01/09 03:23:16;;;;;;;3.72;2.67;;;2.60;70.50;;;;;;5009350;28;20049;-77
2024/01/09 03:25:43;;;;;;;3.75;2.33;;;2.60;92.90;;;;;;4994587;28;20050;-77
2024/01/09 03:28:09;;;;;;;3.20;2.00;;;2.60;99.90;;;;;;4994445;28;20115;-77
2024/01/09 03:30:36;;;;;;;3.05;2.10;;;2.60;93.60;;;;;;5010387;28;20156;-77
2024/01/09 03:33:04;;;;;;;4.45;2.38;;;2.60;66.00;;;;;;5009645;28;20534;-77
2024/01/09 03:35:31;;;;;;;2.13;1.70;;;2.60;68.90;;;;;;5026304;28;20068;-77
2024/01/09 03:37:58;;;;;;;3.20;1.80;;;2.60;65.70;;;;;;5025743;28;20084;-78
2024/01/09 03:40:25;;;;;;;3.45;1.75;;;2.70;89.00;;;;;;5017490;28;20056;-77
2024/01/09 03:42:52;;;;;;;4.30;2.55;;;2.70;87.10;;;;;;5043978;28;20581;-77
2024/01/09 03:45:19;;;;;;;4.72;2.63;;;2.60;92.20;;;;;;5029645;28;20041;-77
2024/01/09 03:47:46;;;;;;;3.63;2.28;;;2.60;92.90;;;;;;5029130;28;20110;-77
2024/01/09 03:50:13;;;;;;;4.00;2.10;;;2.60;93.50;;;;;;5013309;28;20076;-78
2024/01/09 03:52:41;;;;;;;3.15;1.90;;;2.60;92.20;;;;;;5011977;28;20138;-77
2024/01/09 03:55:08;;;;;;;4.78;2.60;;;2.60;94.30;;;;;;5045888;28;20051;-77
2024/01/09 03:57:35;;;;;;;5.07;2.70;;;2.60;95.30;;;;;;5045800;28;20056;-77
2024/01/09 04:00:02;;;;;;;4.55;2.35;;;2.50;95.40;;;;;;5013040;28;20045;-77
2024/01/09 04:02:29;;;;;;;4.28;2.33;;;2.60;92.00;;;;;;5029407;28;20056;-77
2024/01/09 04:04:56;;;;;;;5.30;3.05;;;2.60;92.30;;;;;;5029420;28;20049;-77
2024/01/09 04:07:23;;;;;;;5.13;2.85;;;2.50;98.20;;;;;;5012308;28;20536;-77
2024/01/09 04:09:50;;;;;;;5.65;3.10;;;2.50;95.10;;;;;;5045666;28;20395;-77
2024/01/09 04:12:17;;;;;;;4.95;2.97;;;2.50;90.40;;;;;;5012970;28;20048;-77
2024/01/09 04:14:44;;;;;;;4.43;2.47;;;2.60;89.90;;;;;;5028648;28;20057;-78
2024/01/09 04:17:11;;;;;;;3.65;2.30;;;2.60;93.20;;;;;;5012560;28;20107;-77
2024/01/09 04:19:39;;;;;;;4.78;2.75;;;2.60;86.50;;;;;;5029100;28;20053;-77
2024/01/09 04:22:07;;;;;;;3.97;2.28;;;2.60;94.70;;;;;;5046442;28;20049;-77
2024/01/09 04:24:34;;;;;;;4.95;2.42;;;2.60;95.50;;;;;;5018751;28;20160;-77
2024/01/09 04:27:02;;;;;;;3.83;2.40;;;2.60;83.70;;;;;;4993105;28;20050;-77
2024/01/09 04:29:29;;;;;;;6.20;2.78;;;2.60;87.60;;;;;;5009209;28;20469;-77
2024/01/09 04:31:56;;;;;;;6.82;2.28;;;2.50;94.00;;;;;;4992459;28;20095;-77
2024/01/09 04:34:23;;;;;;;4.40;2.30;;;2.50;95.90;;;;;;4998345;28;20041;-77
2024/01/09 04:36:50;;;;;;;4.95;2.40;;;2.50;95.00;;;;;;5028211;28;20675;-77
2024/01/09 04:39:17;;;;;;;3.65;2.00;;;2.50;95.90;;;;;;5028616;28;20041;-77
2024/01/09 04:41:44;;;;;;;4.30;2.33;;;2.60;92.50;;;;;;5028689;28;20063;-78
2024/01/09 04:44:12;;;;;;;2.90;2.03;;;2.60;99.90;;;;;;5003513;28;20050;-77
2024/01/09 04:46:39;;;;;;;3.15;2.03;;;2.60;98.50;;;;;;5009074;28;20140;-77
2024/01/09 04:49:06;;;;;;;4.40;2.10;;;2.60;97.90;;;;;;4992797;28;20084;-77
2024/01/09 04:51:33;;;;;;;3.70;2.50;;;2.60;97.80;;;;;;5035150;28;20059;-78
2024/01/09 04:54:00;;;;;;;4.47;2.40;;;2.50;99.10;;;;;;5027449;28;20128;-77
2024/01/09 04:56:27;;;;;;;4.90;2.53;;;2.60;95.10;;;;;;5028917;28;20056;-77
2024/01/09 04:58:54;;;;;;;2.72;1.80;;;2.60;92.70;;;;;;5028127;28;20137;-78
2024/01/09 05:01:21;;;;;;;3.47;1.85;;;2.60;96.40;;;;;;5012206;28;20053;-78
2024/01/09 05:03:50;;;;;;;5.80;2.25;;;2.60;99.80;;;;;;5028436;28;20471;-77
2024/01/09 05:06:17;;;;;;;4.53;2.58;;;2.60;99.20;;;;;;5028165;28;20501;-77
2024/01/09 05:08:45;;;;;;;4.40;2.60;;;2.60;99.90;;;;;;5044566;28;20059;-77
2024/01/09 05:11:12;;;;;;;3.20;2.22;;;2.60;99.90;;;;;;5012361;28;20079;-77
2024/01/09 05:13:44;;;;;;;4.18;1.98;;;2.60;99.90;;;;;;5028687;28;20084;-77
2024/01/09 05:16:11;;;;;;;4.40;2.50;;;2.60;96.90;;;;;;5011988;28;20061;-77
2024/01/09 05:18:38;;;;;;;3.90;2.15;;;2.60;97.20;;;;;;5028734;28;20120;-77
2024/01/09 05:21:05;;;;;;;5.20;2.97;;;2.60;90.90;;;;;;5011688;28;20064;-77
2024/01/09 05:23:32;;;;;;;4.68;2.53;;;2.60;77.00;;;;;;5027463;28;20049;-77
2024/01/09 05:25:59;;;;;;;5.40;2.60;;;2.60;82.30;;;;;;5012411;28;20525;-77
2024/01/09 05:28:26;;;;;;;3.13;2.20;;;2.60;85.00;;;;;;5028271;28;20092;-77
2024/01/09 05:30:53;;;;;;;3.65;2.25;;;2.60;85.80;;;;;;5028318;28;20048;-77
2024/01/09 05:33:20;;;;;;;4.43;2.65;;;2.70;83.60;;;;;;5027638;28;20052;-77
2024/01/09 05:35:47;;;;;;;4.28;2.03;;;2.70;88.40;;;;;;5011287;28;20048;-77
2024/01/09 05:38:14;;;;;;;4.18;2.40;;;2.70;85.50;;;;;;5011358;28;20110;-77
2024/01/09 05:40:46;;;;;;;4.20;2.42;;;2.70;89.80;;;;;;5044810;28;20045;-77
2024/01/09 05:43:13;;;;;;;4.65;2.60;;;2.70;87.40;;;;;;5011847;28;20051;-78
2024/01/09 05:45:40;;;;;;;6.90;2.95;;;2.70;88.00;;;;;;5034255;28;20454;-77
2024/01/09 05:48:07;;;;;;;3.85;2.25;;;2.70;85.40;;;;;;5013403;28;20052;-77
2024/01/09 05:50:34;;;;;;;5.40;2.75;;;2.60;91.50;;;;;;4996528;28;20041;-77
2024/01/09 05:53:02;;;;;;;2.88;2.22;;;2.60;90.30;;;;;;5012043;28;20050;-77
2024/01/09 05:55:29;;;;;;;3.35;2.15;;;2.60;84.50;;;;;;5012801;28;20103;-77
2024/01/09 05:57:56;;;;;;;6.28;2.22;;;2.60;90.40;;;;;;5020012;28;20072;-77
2024/01/09 06:00:23;;;;;;;4.72;2.85;;;2.60;80.20;;;;;;5010541;28;20136;-78
2024/01/09 06:02:51;;;;;;;3.38;2.05;;;2.60;86.10;;;;;;5012079;28;20490;-77
2024/01/09 06:05:18;;;;;;;5.07;2.65;;;2.60;75.50;;;;;;5022032;28;20129;-79
2024/01/09 06:07:45;;;;;;;4.38;2.35;;;2.70;79.20;;;;;;5002612;28;20518;-77
2024/01/09 06:10:12;;;;;;;3.35;2.40;;;2.60;81.90;;;;;;5028026;28;20064;-77
2024/01/09 06:12:39;;;;;;;3.17;2.42;;;2.70;85.30;;;;;;5038271;28;20048;-78
2024/01/09 06:15:07;;;;;;;3.35;2.00;;;2.70;84.60;;;;;;5017026;28;20583;-77
2024/01/09 06:17:34;;;;;;;4.40;2.30;;;2.70;79.00;;;;;;5021724;28;20167;-77
2024/01/09 06:20:01;;;;;;;2.90;2.10;;;2.70;79.50;;;;;;5013036;28;20592;-77
2024/01/09 06:22:29;;;;;;;5.28;2.55;;;2.70;78.90;;;;;;5042106;28;20060;-77
2024/01/09 06:24:57;;;;;;;5.28;2.50;;;2.60;82.20;;;;;;5002810;28;20065;-78
2024/01/09 06:27:24;;;;;;;6.38;3.78;;;2.60;78.30;;;;;;5016397;28;20073;-78
2024/01/09 06:29:51;;;;;;;5.40;2.88;;;2.60;83.80;;;;;;5001486;28;20063;-78
2024/01/09 06:32:18;;;;;;;4.88;2.60;;;2.60;83.90;;;;;;5011640;28;20060;-78
2024/01/09 06:34:44;;;;;;;4.10;2.40;;;2.60;79.90;;;;;;5027221;28;20305;-78
2024/01/09 06:37:12;;;;;;;5.05;2.47;;;2.60;91.90;;;;;;5014751;28;20122;-78
2024/01/09 06:39:39;;;;;;;4.68;2.97;;;2.60;93.50;;;;;;5049611;28;20070;-77
2024/01/09 06:42:07;;;;;;;4.35;2.80;;;2.60;95.30;;;;;;5033220;28;20037;-77
2024/01/09 06:44:33;;;;;;;4.10;2.47;;;2.60;91.70;;;;;;5031388;28;20053;-77
2024/01/09 06:47:00;;;;;;;3.75;2.28;;;2.60;96.50;;;;;;5045881;28;20545;-78
2024/01/09 06:49:27;;;;;;;4.13;2.72;;;2.60;90.30;;;;;;5028890;28;20053;-78
2024/01/09 06:51:54;;;;;;;5.90;2.92;;;2.60;84.90;;;;;;5040388;28;20041;-78
2024/01/09 06:54:22;;;;;;;5.22;2.70;;;2.50;93.50;;;;;;5025947;28;20517;-78
2024/01/09 06:56:48;;;;;;;6.22;2.72;;;2.50;93.50;;;;;;5035322;28;20497;-77
2024/01/09 06:59:16;;;;;;;5.43;2.92;;;2.60;89.40;;;;;;5017549;28;20095;-77
2024/01/09 07:01:43;;;;;;;3.42;2.60;;;2.50;91.40;;;;;;5020767;28;20049;-77
2024/01/09 07:04:09;;;;;;;4.32;2.92;;;2.50;93.80;;;;;;5006291;28;20119;-77
2024/01/09 07:06:37;;;;;;;5.50;3.63;;;2.60;93.90;;;;;;5025881;28;20099;-77
2024/01/09 07:09:04;;;;;;;6.65;2.95;;;2.50;91.50;;;;;;5025317;28;20057;-78
2024/01/09 07:11:31;;;;;;;5.40;2.92;;;2.50;92.40;;;;;;5041440;28;20048;-77
2024/01/09 07:13:58;;;;;;;4.55;2.78;;;2.50;97.90;;;;;;5011243;28;20103;-75
2024/01/09 07:16:25;;;;;;;4.45;2.38;;;2.60;91.80;;;;;;5019428;28;20111;-80
2024/01/09 07:18:51;;;;;;;2.92;2.03;;;2.60;92.60;;;;;;5022825;28;20118;-80
2024/01/09 07:21:19;;;;;;;7.28;2.50;;;2.50;88.50;;;;;;5026615;28;20081;-81
2024/01/09 07:23:47;;;;;;;5.68;1.92;;;2.50;90.00;;;;;;5009861;28;20136;-80
2024/01/09 07:26:14;;;;;;;4.70;2.28;;;2.50;97.10;;;;;;5027381;28;20060;-80
2024/01/09 07:28:44;;;;;;;3.50;1.92;;;2.50;94.70;;;;;;5013183;28;20083;-81
2024/01/09 07:31:11;;;;;;;3.97;2.20;;;2.50;94.80;;;;;;5047775;28;20408;-81
2024/01/09 07:33:38;;;;;;;4.05;2.15;;;2.50;86.30;;;;;;5040450;28;20076;-80
2024/01/09 07:36:07;;;;;;;3.75;2.20;;;2.50;97.60;;;;;;5022596;28;20117;-80
2024/01/09 07:38:34;;;;;;;4.10;2.45;;;2.60;94.30;;;;;;5019808;28;20057;-81
2024/01/09 07:41:02;;;;;;;3.97;2.30;;;2.50;90.30;;;;;;5009752;28;20128;-81
2024/01/09 07:43:29;;;;;;;4.38;2.38;;;2.50;90.90;;;;;;4991059;28;20077;-80
2024/01/09 07:45:56;;;;;;;5.10;2.63;;;2.50;95.20;;;;;;5023206;28;20053;-80
2024/01/09 07:48:23;;;;;;;4.93;3.10;;;2.50;90.50;;;;;;5025564;28;20050;-81
2024/01/09 07:50:50;;;;;;;4.03;2.70;;;2.50;90.70;;;;;;5025712;28;20190;-81
2024/01/09 07:53:17;;;;;;;6.53;3.30;;;2.50;89.10;;;;;;5038771;28;20050;-81
2024/01/09 07:55:45;;;;;;;6.15;3.00;;;2.50;96.60;;;;;;5024549;28;20059;-81
2024/01/09 07:58:12;;;;;;;3.83;3.00;;;2.50;99.90;;;;;;5022204;28;20062;-81
2024/01/09 08:00:38;;;;;;;4.57;3.03;;;2.50;99.70;;;;;;5022517;28;20443;-80
2024/01/09 08:03:06;;;;;;;6.20;2.75;;;2.50;99.90;;;;;;4992754;28;20403;-80
2024/01/09 08:05:33;;;;;;;4.15;2.50;;;2.50;99.90;;;;;;5025147;28;20461;-80
2024/01/09 08:08:00;;;;;;;6.57;2.72;;;2.50;90.60;;;;;;5007126;28;20113;-81
2024/01/09 08:10:27;;;;;;;4.70;2.63;;;2.60;90.00;;;;;;5008782;28;20057;-80
2024/01/09 08:12:54;;;;;;;4.78;3.30;;;2.50;85.20;;;;;;4992612;28;20140;-80
2024/01/09 08:15:21;;;;;;;5.40;3.00;;;2.50;84.20;;;;;;5025602;28;20049;-80
2024/01/09 08:17:49;;;;;;;5.43;2.67;;;2.50;90.10;;;;;;5025511;28;20060;-80
2024/01/09 08:20:16;;;;;;;5.13;2.95;;;2.50;87.40;;;;;;5025476;28;20107;-80
2024/01/09 08:22:44;;;;;;;7.18;2.88;;;2.40;87.20;;;;;;5021990;28;20041;-80
2024/01/09 08:25:10;;;;;;;4.22;2.95;;;2.40;89.50;;;;;;5035503;28;20059;-80
2024/01/09 08:27:38;;;;;;;6.55;3.53;;;2.40;90.60;;;;;;5044271;28;20397;-80
2024/01/09 08:30:08;;;;;;;5.03;2.80;;;2.40;82.90;;;;;;5030085;28;20080;-81
2024/01/09 08:32:37;;;;;;;4.93;2.63;;;2.40;83.20;;;;;;5008512;28;20059;-81
2024/01/09 08:35:07;;;;;;;4.13;2.97;;;2.30;73.60;;;;;;5008731;28;20050;-81
2024/01/09 08:37:34;;;;;;;4.40;2.72;;;2.30;73.60;;;;;;5024315;28;20061;-80
2024/01/09 08:40:01;;;;;;;4.03;2.80;;;2.30;78.60;;;;;;5024385;28;20467;-80
2024/01/09 08:42:28;;;;;;;3.13;2.05;;;2.30;74.70;;;;;;5009087;28;20068;-81
2024/01/09 08:44:54;;;;;;;4.70;2.67;;;2.30;74.10;;;;;;5030383;28;20056;-82
2024/01/09 08:47:22;;;;;;;4.22;2.75;;;2.30;79.10;;;;;;5008565;28;20050;-81
2024/01/09 08:49:50;;;;;;;6.30;3.25;;;2.30;76.40;;;;;;5025801;28;20060;-80
2024/01/09 08:52:21;;;;;;;4.13;2.97;;;2.30;77.30;;;;;;5024681;28;20041;-81
2024/01/09 08:54:48;;;;;;;4.95;2.83;;;2.30;79.90;;;;;;5030680;28;20522;-80
2024/01/09 08:57:15;;;;;;;4.72;2.92;;;2.40;76.40;;;;;;5035142;28;20502;-80
2024/01/09 08:59:42;;;;;;;5.57;3.08;;;2.40;71.90;;;;;;5036007;28;20073;-80
2024/01/09 09:02:09;;;;;;;4.43;2.63;;;2.40;79.80;;;;;;5000711;28;20555;-81
2024/01/09 09:04:37;;;;;;;4.10;2.45;;;2.40;74.90;;;;;;5033176;28;20149;-81
2024/01/09 09:07:03;;;;;;;3.17;1.73;;;2.40;80.50;;;;;;5024128;28;20080;-81
2024/01/09 09:09:33;;;;;;;3.65;2.35;;;2.50;83.00;;;;;;5007089;28;20049;-81
2024/01/09 09:12:01;;;;;;;4.45;2.92;;;2.50;74.40;;;;;;5024331;28;20052;-81
2024/01/09 09:14:28;;;;;;;4.78;2.53;;;2.50;70.40;;;;;;5029332;28;20041;-80
2024/01/09 09:16:56;;;;;;;5.72;3.30;;;2.50;75.00;;;;;;4992393;28;20064;-81
2024/01/09 09:19:23;;;;;;;5.85;2.60;;;2.50;79.90;;;;;;5022873;28;20053;-81
2024/01/09 09:21:50;;;;;;;3.97;2.65;;;2.60;81.60;;;;;;5033292;28;20052;-75
2024/01/09 09:24:17;;;;;;;5.32;3.30;;;2.60;90.40;;;;;;5003190;28;20110;-80
2024/01/09 09:26:44;;;;;;;4.82;3.22;;;2.60;83.10;;;;;;5006119;28;20044;-78
2024/01/09 09:29:11;;;;;;;8.70;3.90;;;2.60;83.70;;;;;;4997869;28;20303;-78
2024/01/09 09:31:53;;;;;;;5.10;2.95;;;2.60;78.50;;;;;;5024835;28;20057;-78
2024/01/09 09:34:20;;;;;;;5.10;3.20;;;2.70;80.00;;;;;;4997232;28;20055;-78
2024/01/09 09:36:47;;;;;;;4.47;3.13;;;2.70;85.30;;;;;;5000255;28;20045;-78
2024/01/09 09:39:15;;;;;;;4.95;3.42;;;2.70;86.00;;;;;;5006699;28;20053;-77
2024/01/09 09:41:46;;;;;;;5.47;3.50;;;2.60;92.30;;;;;;5032351;28;20131;-78
2024/01/09 09:44:13;;;;;;;5.65;3.38;;;2.70;93.60;;;;;;5003220;28;20060;-77
2024/01/09 09:46:41;;;;;;;5.47;3.00;;;2.60;98.30;;;;;;5004547;28;20049;-78
2024/01/09 09:49:08;;;;;;;4.95;3.05;;;2.60;90.00;;;;;;4991333;28;20044;-78
2024/01/09 09:51:35;;;;;;;3.47;2.40;;;2.70;92.10;;;;;;5004945;28;20054;-78
2024/01/09 09:54:02;;;;;;;3.78;2.65;;;2.70;92.70;;;;;;4998136;28;20048;-77
2024/01/09 09:56:29;;;;;;;7.47;3.30;;;2.70;90.10;;;;;;5004643;28;20246;-77
2024/01/09 09:58:56;;;;;;;6.90;3.45;;;2.70;94.40;;;;;;4998675;28;20057;-78
2024/01/09 10:01:23;;;;;;;7.55;3.78;;;2.70;94.20;;;;;;5009342;28;20049;-78
2024/01/09 10:04:06;;;;;;;5.03;3.40;;;2.70;95.20;;;;;;5010591;28;20115;-78
2024/01/09 10:06:33;;;;;;;4.82;3.03;;;2.70;99.90;;;;;;4992142;28;20110;-79
2024/01/09 10:09:01;;;;;;;4.65;2.55;;;2.70;99.90;;;;;;5004980;28;20127;-79
2024/01/09 10:11:29;;;;;;;5.28;3.30;;;2.70;99.90;;;;;;5000824;28;20448;-78
2024/01/09 10:13:56;;;;;;;6.00;3.00;;;2.70;99.80;;;;;;5022671;28;20140;-79
2024/01/09 10:16:24;;;;;;;4.15;2.75;;;2.70;99.90;;;;;;5003209;28;20483;-79
2024/01/09 10:18:57;;;;;;;4.97;2.88;;;2.70;99.90;;;;;;4992564;28;20073;-80
2024/01/09 10:21:24;;;;;;;5.72;2.60;;;2.70;99.90;;;;;;4999655;28;20049;-77
2024/01/09 10:23:53;;;;;;;4.55;2.60;;;2.70;99.90;;;;;;5001168;28;20146;-78
2024/01/09 10:26:21;;;;;;;4.05;2.60;;;2.80;99.90;;;;;;5024368;28;20541;-78
2024/01/09 10:28:47;;;;;;;3.45;2.15;;;2.80;99.90;;;;;;5024783;28;20098;-78
2024/01/09 10:31:14;;;;;;;5.88;2.78;;;2.80;99.90;;;;;;5013896;28;20084;-79
2024/01/09 10:33:41;;;;;;;4.45;2.55;;;2.80;99.40;;;;;;5028763;28;20048;-74
2024/01/09 10:36:09;;;;;;;6.50;2.90;;;2.90;99.90;;;;;;5012224;28;20132;-80
2024/01/09 10:38:36;;;;;;;6.00;2.83;;;2.80;99.30;;;;;;5012466;28;20133;-79
2024/01/09 10:41:16;;;;;;;6.82;3.28;;;2.90;99.90;;;;;;5031488;28;20053;-79
2024/01/09 10:43:44;;;;;;;6.32;3.00;;;2.90;99.90;;;;;;5023509;28;20056;-80
2024/01/09 10:46:12;;;;;;;3.92;2.67;;;2.90;95.30;;;;;;5011289;28;20128;-80
2024/01/09 10:48:41;;;;;;;4.40;2.83;;;3.00;95.60;;;;;;5011190;28;20049;-80
2024/01/09 10:51:11;;;;;;;5.03;3.42;;;3.00;97.40;;;;;;5011374;28;20059;-81
2024/01/09 10:53:40;;;;;;;8.25;3.25;;;3.00;93.70;;;;;;5014950;28;20121;-81
2024/01/09 10:56:08;;;;;;;5.88;3.08;;;3.00;98.80;;;;;;5031355;28;20055;-80
2024/01/09 10:58:36;;;;;;;5.00;2.80;;;3.10;95.80;;;;;;5028780;28;20522;-80
2024/01/09 11:01:03;;;;;;;4.15;2.05;;;3.10;99.90;;;;;;4995057;28;20286;-80
2024/01/09 11:03:31;;;;;;;4.00;2.47;;;3.10;97.40;;;;;;5011215;28;20487;-80
2024/01/09 11:05:59;;;;;;;6.72;2.80;;;3.20;99.90;;;;;;4994256;28;20059;-80
2024/01/09 11:08:27;;;;;;;8.23;3.40;;;3.20;99.90;;;;;;5020260;28;20049;-80
2024/01/09 11:10:55;;;;;;;5.00;2.97;;;3.20;99.90;;;;;;5029231;28;20056;-80
2024/01/09 11:13:22;;;;;;;4.47;2.50;;;3.20;99.90;;;;;;5025207;28;20667;-80
2024/01/09 11:15:54;;;;;;;4.55;2.60;;;3.30;95.60;;;;;;4993721;28;20126;-80
2024/01/09 11:18:22;;;;;;;5.72;2.42;;;3.30;99.90;;;;;;4993904;28;20053;-80
2024/01/09 11:21:02;;;;;;;2.50;1.80;;;3.30;99.90;;;;;;5024809;28;20100;-80
2024/01/09 11:23:57;;;;;;;5.43;2.67;;;3.30;97.90;;;;;;5023794;28;20060;-80
2024/01/09 11:26:32;;;;;;;7.22;3.17;;;3.30;99.00;;;;;;5008291;28;20121;-80
2024/01/09 11:29:00;;;;;;;5.50;2.55;;;3.30;98.60;;;;;;5024779;28;20053;-80
2024/01/09 11:31:30;;;;;;;6.50;3.13;;;3.40;95.90;;;;;;4994497;28;20049;-80
2024/01/09 11:34:01;;;;;;;4.15;2.40;;;3.40;97.20;;;;;;5026708;28;20070;-80
2024/01/09 11:36:34;;;;;;;4.90;2.80;;;3.40;99.20;;;;;;5010316;28;20077;-80
2024/01/09 11:39:01;;;;;;;4.00;2.55;;;3.50;99.70;;;;;;5031593;28;20430;-80
2024/01/09 11:41:33;;;;;;;6.43;2.75;;;3.50;99.90;;;;;;5012503;28;20143;-80
2024/01/09 11:44:02;;;;;;;6.18;3.30;;;3.50;99.90;;;;;;5018782;28;20052;-80
2024/01/09 11:46:36;;;;;;;3.92;2.38;;;3.60;99.90;;;;;;5045772;28;20114;-80
2024/01/09 11:49:05;;;;;;;6.82;2.63;;;3.60;99.90;;;;;;5013217;28;20710;-80
2024/01/09 11:51:34;;;;;;;5.28;2.70;;;3.60;99.90;;;;;;5012662;28;20045;-81
2024/01/09 11:54:02;;;;;;;3.08;2.05;;;3.70;99.90;;;;;;5012631;28;20065;-81
2024/01/09 11:56:30;;;;;;;3.75;1.75;;;3.80;99.90;;;;;;5029464;28;20099;-80
2024/01/09 11:59:00;;;;;;;3.60;2.25;;;3.80;99.90;;;;;;5009310;28;20053;-80
2024/01/09 12:01:28;;;;;;;4.60;2.33;;;3.90;99.90;;;;;;5032257;28;20052;-80
2024/01/09 12:03:56;;;;;;;5.68;2.67;;;3.90;99.90;;;;;;5038015;28;20053;-80
2024/01/09 12:06:25;;;;;;;5.25;2.67;;;4.00;99.90;;;;;;5033745;28;20053;-80
2024/01/09 12:08:52;;;;;;;2.42;1.80;;;4.00;99.90;;;;;;5034888;28;20136;-80
2024/01/09 12:11:20;;;;;;;4.40;2.08;;;4.10;99.90;;;;;;5003921;28;20075;-80
2024/01/09 12:13:48;;;;;;;3.33;1.77;;;4.20;99.90;;;;;;5002845;28;20108;-81
2024/01/09 12:16:19;;;;;;;3.42;1.85;;;4.10;99.90;;;;;;5005358;28;20053;-81
2024/01/09 12:18:54;;;;;;;5.00;2.00;;;4.20;99.90;;;;;;5003074;28;20049;-80
2024/01/09 12:21:24;;;;;;;3.15;1.70;;;4.20;99.90;;;;;;5002750;28;20137;-81
2024/01/09 12:23:51;;;;;;;3.40;1.70;;;4.30;99.90;;;;;;5035866;28;20668;-81
2024/01/09 12:26:38;;;;;;;5.20;1.80;;;4.40;99.90;;;;;;5019005;28;20514;-81
2024/01/09 12:29:05;;;;;;;4.20;1.83;;;4.60;99.90;;;;;;5016407;28;20656;-81
2024/01/09 12:31:36;;;;;;;2.95;2.25;;;4.60;99.90;;;;;;5003368;28;20048;-81
2024/01/09 12:34:03;;;;;;;6.93;2.42;;;4.70;99.90;;;;;;5036209;28;20058;-81
2024/01/09 12:36:31;;;;;;;3.00;2.08;;;4.70;99.90;;;;;;5018190;28;20099;-81
2024/01/09 12:38:59;;;;;;;4.03;1.70;;;4.80;99.90;;;;;;5019477;28;20049;-81
2024/01/09 12:41:26;;;;;;;3.03;1.80;;;4.90;99.90;;;;;;5035211;28;20059;-81
2024/01/09 12:43:53;;;;;;;4.10;2.03;;;4.90;99.90;;;;;;5039459;28;20076;-81
2024/01/09 12:46:23;;;;;;;2.92;2.05;;;4.90;99.90;;;;;;5020275;28;20060;-81
2024/01/09 12:48:50;;;;;;;4.18;1.73;;;5.00;99.90;;;;;;5034863;28;20518;-81
2024/01/09 12:51:18;;;;;;;3.10;1.67;;;4.90;99.90;;;;;;5036369;28;20052;-81
2024/01/09 12:53:46;;;;;;;2.63;1.60;;;4.80;99.90;;;;;;5018580;28;20049;-81
2024/01/09 12:56:14;;;;;;;3.22;2.38;;;4.90;99.90;;;;;;5021702;28;20057;-80
2024/01/09 12:58:44;;;;;;;5.28;1.92;;;5.00;99.90;;;;;;5019571;28;20049;-81
2024/01/09 13:01:12;;;;;;;2.25;1.40;;;5.20;99.90;;;;;;5018788;28;20049;-82